createdAt,value
2018-06-27T00:01:57.444Z,14.96
2018-06-27T00:04:24.834Z,14.95
2018-06-27T00:06:52.050Z,14.95
2018-06-27T00:09:19.225Z,14.94
2018-06-27T00:11:46.357Z,14.90
2018-06-27T00:14:13.544Z,14.94
2018-06-27T00:16:40.776Z,14.85
2018-06-27T00:19:07.972Z,14.83
2018-06-27T00:21:35.221Z,14.83
2018-06-27T00:24:02.439Z,14.79
2018-06-27T00:26:29.647Z,14.72
2018-06-27T00:28:57.073Z,14.63
2018-06-27T00:31:24.435Z,14.59
2018-06-27T00:33:51.662Z,14.54
2018-06-27T00:36:18.813Z,14.47
2018-06-27T00:38:45.980Z,14.38
2018-06-27T00:41:13.171Z,14.37
2018-06-27T00:43:40.476Z,14.36
2018-06-27T00:46:07.633Z,14.40
2018-06-27T00:48:34.794Z,14.37
2018-06-27T00:51:02.105Z,14.33
2018-06-27T00:53:34.961Z,14.42
2018-06-27T00:56:02.197Z,14.38
2018-06-27T00:58:29.449Z,14.39
2018-06-27T01:00:56.819Z,14.48
2018-06-27T01:03:24.087Z,14.40
2018-06-27T01:05:51.339Z,14.31
2018-06-27T01:08:18.544Z,14.22
2018-06-27T01:10:46.186Z,14.17
2018-06-27T01:13:14.953Z,14.16
2018-06-27T01:15:42.108Z,14.14
2018-06-27T01:18:09.359Z,14.09
2018-06-27T01:20:36.511Z,13.98
2018-06-27T01:23:03.712Z,14.06
2018-06-27T01:25:30.991Z,14.05
2018-06-27T01:27:58.230Z,14.07
2018-06-27T01:30:25.470Z,14.12
2018-06-27T01:32:52.626Z,14.12
2018-06-27T01:35:19.767Z,14.09
2018-06-27T01:37:46.875Z,14.08
2018-06-27T01:40:14.186Z,14.13
2018-06-27T01:42:41.412Z,14.15
2018-06-27T01:45:08.643Z,14.07
2018-06-27T01:47:35.827Z,14.11
2018-06-27T01:50:02.972Z,14.16
2018-06-27T01:52:30.205Z,14.18
2018-06-27T01:54:57.511Z,14.19
2018-06-27T01:57:24.846Z,14.14
2018-06-27T01:59:52.000Z,14.12
2018-06-27T02:02:19.172Z,14.12
2018-06-27T02:04:46.667Z,14.09
2018-06-27T02:07:13.800Z,14.05
2018-06-27T02:09:41.037Z,13.99
2018-06-27T02:12:08.171Z,13.94
2018-06-27T02:14:35.362Z,13.84
2018-06-27T02:17:02.580Z,13.78
2018-06-27T02:19:29.779Z,13.71
2018-06-27T02:21:57.084Z,13.69
2018-06-27T02:24:24.337Z,13.71
2018-06-27T02:26:51.485Z,13.71
2018-06-27T02:29:18.614Z,13.73
2018-06-27T02:31:47.892Z,13.73
2018-06-27T02:34:15.158Z,13.75
2018-06-27T02:36:42.343Z,13.69
2018-06-27T02:39:10.802Z,13.74
2018-06-27T02:41:39.079Z,13.73
2018-06-27T02:44:06.218Z,13.70
2018-06-27T02:46:33.512Z,13.68
2018-06-27T02:49:00.737Z,13.63
2018-06-27T02:51:27.967Z,13.63
2018-06-27T02:53:55.221Z,13.58
2018-06-27T02:56:22.352Z,13.52
2018-06-27T02:58:49.617Z,13.49
2018-06-27T03:01:16.837Z,13.42
2018-06-27T03:03:43.981Z,13.42
2018-06-27T03:06:11.219Z,13.41
2018-06-27T03:08:38.383Z,13.44
2018-06-27T03:11:05.694Z,13.42
2018-06-27T03:13:32.852Z,13.39
2018-06-27T03:16:00.063Z,13.39
2018-06-27T03:18:27.351Z,13.32
2018-06-27T03:20:54.595Z,13.33
2018-06-27T03:23:21.846Z,13.32
2018-06-27T03:25:48.968Z,13.26
2018-06-27T03:28:16.135Z,13.36
2018-06-27T03:30:43.306Z,13.27
2018-06-27T03:33:10.461Z,13.26
2018-06-27T03:35:37.770Z,13.25
2018-06-27T03:38:05.032Z,13.24
2018-06-27T03:40:32.536Z,13.25
2018-06-27T03:42:59.731Z,13.27
2018-06-27T03:45:26.978Z,13.27
2018-06-27T03:47:54.348Z,13.26
2018-06-27T03:50:22.565Z,13.30
2018-06-27T03:52:49.773Z,13.32
2018-06-27T03:55:16.975Z,13.31
2018-06-27T03:57:44.432Z,13.31
2018-06-27T04:00:11.747Z,13.34
2018-06-27T04:02:38.945Z,13.34
2018-06-27T04:05:06.268Z,13.40
2018-06-27T04:07:33.603Z,13.46
2018-06-27T04:10:00.902Z,13.60
2018-06-27T04:12:28.330Z,13.62
2018-06-27T04:14:55.649Z,13.68
2018-06-27T04:17:22.798Z,13.75
2018-06-27T04:19:49.939Z,13.81
2018-06-27T04:22:24.823Z,13.95
2018-06-27T04:24:52.035Z,13.99
2018-06-27T04:27:19.182Z,14.05
2018-06-27T04:29:46.356Z,14.11
2018-06-27T04:32:13.468Z,14.18
2018-06-27T04:34:40.628Z,14.21
2018-06-27T04:37:07.892Z,14.27
2018-06-27T04:39:35.104Z,14.28
2018-06-27T04:42:02.237Z,14.26
2018-06-27T04:44:29.412Z,14.31
2018-06-27T04:46:56.589Z,14.44
2018-06-27T04:49:23.868Z,14.49
2018-06-27T04:51:51.130Z,14.72
2018-06-27T04:54:18.232Z,14.76
2018-06-27T04:56:45.379Z,14.97
2018-06-27T04:59:12.543Z,15.24
2018-06-27T05:01:40.372Z,15.58
2018-06-27T05:04:07.507Z,15.73
2018-06-27T05:06:34.647Z,15.87
2018-06-27T05:09:01.920Z,15.97
2018-06-27T05:11:29.123Z,16.12
2018-06-27T05:13:56.404Z,16.26
2018-06-27T05:16:23.562Z,16.34
2018-06-27T05:18:50.718Z,16.42
2018-06-27T05:21:17.909Z,16.58
2018-06-27T05:23:45.050Z,16.55
2018-06-27T05:26:12.237Z,16.69
2018-06-27T05:28:39.451Z,16.73
2018-06-27T05:31:06.603Z,16.81
2018-06-27T05:33:33.774Z,16.75
2018-06-27T05:36:00.951Z,16.88
2018-06-27T05:38:28.274Z,16.93
2018-06-27T05:40:55.436Z,17.00
2018-06-27T05:43:22.625Z,16.98
2018-06-27T05:45:50.076Z,17.02
2018-06-27T05:48:17.225Z,17.15
2018-06-27T05:50:44.487Z,17.14
2018-06-27T05:53:11.617Z,17.19
2018-06-27T05:55:38.787Z,17.22
2018-06-27T05:58:06.017Z,17.28
2018-06-27T06:00:33.120Z,17.28
2018-06-27T06:03:00.414Z,17.40
2018-06-27T06:05:27.644Z,17.39
2018-06-27T06:07:54.819Z,17.55
2018-06-27T06:10:21.936Z,17.58
2018-06-27T06:12:49.134Z,17.57
2018-06-27T06:15:16.352Z,17.70
2018-06-27T06:17:43.457Z,17.75
2018-06-27T06:20:10.644Z,17.81
2018-06-27T06:22:37.745Z,17.94
2018-06-27T06:25:04.956Z,18.00
2018-06-27T06:27:32.121Z,18.14
2018-06-27T06:29:59.288Z,18.33
2018-06-27T06:32:26.569Z,18.36
2018-06-27T06:34:53.724Z,18.50
2018-06-27T06:37:20.841Z,18.55
2018-06-27T06:39:47.955Z,18.77
2018-06-27T06:42:15.112Z,18.91
2018-06-27T06:44:42.240Z,18.96
2018-06-27T06:47:09.561Z,18.99
2018-06-27T06:49:36.735Z,19.07
2018-06-27T06:52:04.036Z,19.22
2018-06-27T06:54:32.540Z,19.29
2018-06-27T06:56:59.791Z,19.42
2018-06-27T06:59:26.949Z,19.58
2018-06-27T07:01:54.143Z,19.63
2018-06-27T07:04:21.305Z,19.79
2018-06-27T07:06:50.507Z,20.05
2018-06-27T07:09:17.642Z,20.22
2018-06-27T07:11:44.783Z,20.21
2018-06-27T07:14:12.511Z,20.31
2018-06-27T07:16:40.196Z,20.36
2018-06-27T07:19:07.401Z,20.37
2018-06-27T07:21:34.572Z,20.56
2018-06-27T07:24:02.073Z,20.67
2018-06-27T07:26:29.322Z,20.66
2018-06-27T07:29:08.994Z,20.73
2018-06-27T07:31:36.191Z,20.89
2018-06-27T07:34:03.384Z,21.00
2018-06-27T07:36:30.548Z,21.19
2018-06-27T07:38:57.777Z,21.32
2018-06-27T07:41:25.004Z,21.17
2018-06-27T07:43:52.136Z,21.06
2018-06-27T07:46:19.407Z,21.33
2018-06-27T07:48:46.667Z,21.57
2018-06-27T07:51:13.884Z,21.50
2018-06-27T07:53:41.890Z,21.79
2018-06-27T07:56:09.028Z,21.99
2018-06-27T07:58:36.165Z,22.41
2018-06-27T08:01:03.399Z,22.21
2018-06-27T08:03:30.681Z,22.38
2018-06-27T08:05:57.888Z,22.60
2018-06-27T08:08:25.115Z,22.68
2018-06-27T08:10:52.217Z,22.98
2018-06-27T08:13:19.340Z,23.62
2018-06-27T08:15:46.611Z,23.67
2018-06-27T08:18:13.768Z,24.18
2018-06-27T08:20:40.907Z,23.47
2018-06-27T08:23:08.380Z,23.61
2018-06-27T08:25:37.776Z,24.37
2018-06-27T08:28:05.020Z,24.81
2018-06-27T08:30:32.228Z,25.14
2018-06-27T08:32:59.430Z,25.26
2018-06-27T08:35:26.574Z,25.43
2018-06-27T08:37:53.772Z,25.06
2018-06-27T08:40:21.105Z,24.42
2018-06-27T08:42:48.253Z,24.35
2018-06-27T08:45:17.516Z,24.74
2018-06-27T08:47:44.678Z,25.23
2018-06-27T08:50:11.837Z,24.94
2018-06-27T08:52:39.140Z,24.68
2018-06-27T08:55:06.325Z,24.21
2018-06-27T08:57:33.452Z,23.58
2018-06-27T09:00:00.949Z,23.00
2018-06-27T09:02:28.122Z,22.80
2018-06-27T09:04:55.397Z,23.34
2018-06-27T09:07:22.579Z,24.23
2018-06-27T09:09:49.848Z,24.57
2018-06-27T09:12:17.038Z,24.35
2018-06-27T09:14:44.219Z,25.33
2018-06-27T09:17:11.435Z,25.96
2018-06-27T09:19:38.614Z,26.19
2018-06-27T09:22:06.337Z,24.96
2018-06-27T09:24:33.488Z,24.27
2018-06-27T09:27:00.670Z,22.99
2018-06-27T09:29:28.057Z,23.59
2018-06-27T09:31:55.273Z,24.46
2018-06-27T09:34:22.428Z,24.74
2018-06-27T09:36:49.631Z,24.69
2018-06-27T09:39:16.872Z,24.96
2018-06-27T09:41:44.120Z,25.69
2018-06-27T09:44:11.311Z,24.73
2018-06-27T09:46:38.485Z,24.79
2018-06-27T09:49:05.697Z,24.45
2018-06-27T09:51:32.899Z,24.13
2018-06-27T09:54:00.081Z,24.20
2018-06-27T09:56:27.317Z,24.15
2018-06-27T09:58:54.564Z,24.29
2018-06-27T10:01:21.720Z,23.92
2018-06-27T10:03:48.840Z,24.34
2018-06-27T10:06:16.996Z,24.08
2018-06-27T10:08:44.116Z,23.69
2018-06-27T10:11:11.301Z,24.54
2018-06-27T10:13:38.572Z,24.21
2018-06-27T10:16:05.843Z,23.87
2018-06-27T10:18:33.535Z,24.27
2018-06-27T10:21:00.703Z,24.15
2018-06-27T10:23:27.967Z,25.33
2018-06-27T10:25:55.289Z,25.16
2018-06-27T10:28:22.485Z,25.17
2018-06-27T10:30:49.649Z,25.38
2018-06-27T10:33:16.916Z,26.31
2018-06-27T10:35:44.234Z,26.84
2018-06-27T10:38:11.429Z,27.22
2018-06-27T10:40:38.598Z,26.00
2018-06-27T10:43:05.800Z,25.77
2018-06-27T10:45:32.908Z,26.91
2018-06-27T10:48:00.085Z,27.53
2018-06-27T10:50:28.568Z,28.46
2018-06-27T10:52:55.909Z,27.85
2018-06-27T10:55:24.037Z,28.77
2018-06-27T10:57:51.308Z,27.72
2018-06-27T11:00:18.469Z,27.75
2018-06-27T11:02:45.603Z,27.84
2018-06-27T11:05:12.846Z,28.97
2018-06-27T11:07:39.947Z,28.00
2018-06-27T11:10:07.089Z,28.31
2018-06-27T11:12:34.489Z,28.98
2018-06-27T11:15:01.628Z,27.86
2018-06-27T11:17:28.845Z,26.33
2018-06-27T11:19:56.111Z,25.78
2018-06-27T11:22:23.690Z,26.01
2018-06-27T11:24:50.829Z,28.18
2018-06-27T11:27:21.450Z,28.58
2018-06-27T11:29:48.678Z,29.59
2018-06-27T11:32:15.816Z,28.78
2018-06-27T11:34:43.027Z,27.97
2018-06-27T11:37:10.140Z,27.42
2018-06-27T11:39:37.271Z,27.01
2018-06-27T11:42:04.594Z,28.33
2018-06-27T11:44:31.815Z,29.96
2018-06-27T11:46:59.080Z,31.24
2018-06-27T11:49:26.480Z,31.81
2018-06-27T11:51:53.666Z,31.03
2018-06-27T11:54:20.894Z,31.11
2018-06-27T11:56:48.103Z,30.81
2018-06-27T11:59:15.246Z,31.75
2018-06-27T12:01:42.615Z,32.13
2018-06-27T12:04:09.785Z,33.53
2018-06-27T12:06:36.976Z,32.79
2018-06-27T12:09:06.929Z,32.41
2018-06-27T12:11:34.293Z,32.22
2018-06-27T12:14:01.520Z,32.53
2018-06-27T12:16:28.892Z,29.30
2018-06-27T12:18:56.194Z,29.86
2018-06-27T12:21:23.409Z,28.27
2018-06-27T12:23:50.638Z,29.28
2018-06-27T12:26:18.893Z,28.75
2018-06-27T12:28:45.976Z,27.22
2018-06-27T12:31:13.166Z,27.19
2018-06-27T12:33:40.335Z,27.24
2018-06-27T12:36:07.525Z,26.77
2018-06-27T12:38:34.693Z,26.95
2018-06-27T12:41:01.967Z,28.25
2018-06-27T12:43:29.214Z,28.31
2018-06-27T12:45:56.420Z,28.13
2018-06-27T12:48:23.640Z,28.34
2018-06-27T12:50:50.825Z,27.78
2018-06-27T12:53:18.301Z,27.38
2018-06-27T12:55:45.632Z,27.62
2018-06-27T12:58:12.803Z,27.63
2018-06-27T13:00:41.608Z,26.52
2018-06-27T13:03:08.830Z,26.49
2018-06-27T13:05:36.025Z,25.46
2018-06-27T13:08:05.036Z,26.18
2018-06-27T13:10:32.533Z,25.73
2018-06-27T13:12:59.807Z,25.55
2018-06-27T13:15:31.876Z,25.77
2018-06-27T13:17:59.097Z,25.85
2018-06-27T13:20:26.333Z,26.32
2018-06-27T13:22:53.612Z,26.74
2018-06-27T13:25:20.864Z,27.56
2018-06-27T13:27:48.050Z,28.52
2018-06-27T13:30:15.270Z,27.92
2018-06-27T13:32:42.448Z,28.06
2018-06-27T13:35:09.757Z,28.59
2018-06-27T13:37:37.053Z,28.27
2018-06-27T13:40:04.290Z,27.72
2018-06-27T13:42:31.606Z,27.86
2018-06-27T13:44:58.836Z,27.85
2018-06-27T13:47:26.128Z,27.86
2018-06-27T13:49:53.771Z,28.18
2018-06-27T13:52:21.006Z,28.31
2018-06-27T13:54:53.919Z,28.25
2018-06-27T13:57:21.122Z,28.41
2018-06-27T13:59:48.697Z,28.62
2018-06-27T14:02:15.876Z,28.40
2018-06-27T14:04:43.007Z,28.16
2018-06-27T14:07:10.221Z,27.33
2018-06-27T14:09:37.433Z,27.47
2018-06-27T14:12:04.637Z,27.21
2018-06-27T14:14:35.797Z,26.89
2018-06-27T14:17:03.030Z,26.63
2018-06-27T14:19:30.777Z,27.12
2018-06-27T14:21:58.238Z,27.53
2018-06-27T14:24:25.726Z,27.93
2018-06-27T14:26:52.912Z,28.60
2018-06-27T14:29:20.103Z,29.02
2018-06-27T14:31:47.209Z,29.08
2018-06-27T14:34:14.375Z,28.91
2018-06-27T14:36:41.574Z,28.96
2018-06-27T14:39:09.459Z,28.97
2018-06-27T14:41:36.716Z,28.83
2018-06-27T14:44:04.126Z,27.83
2018-06-27T14:46:31.623Z,27.69
2018-06-27T14:48:58.880Z,26.54
2018-06-27T14:51:26.551Z,26.32
2018-06-27T14:53:53.791Z,26.53
2018-06-27T14:56:21.037Z,26.64
2018-06-27T14:58:48.205Z,26.77
2018-06-27T15:01:15.381Z,27.59
2018-06-27T15:03:42.520Z,27.11
2018-06-27T15:06:09.703Z,26.95
2018-06-27T15:08:37.002Z,27.62
2018-06-27T15:11:04.182Z,29.33
2018-06-27T15:13:31.473Z,31.53
2018-06-27T15:15:58.742Z,32.17
2018-06-27T15:18:26.100Z,30.10
2018-06-27T15:20:53.352Z,29.41
2018-06-27T15:23:20.489Z,28.40
2018-06-27T15:25:47.604Z,29.38
2018-06-27T15:28:14.802Z,31.63
2018-06-27T15:30:42.112Z,31.29
2018-06-27T15:33:09.297Z,29.94
2018-06-27T15:35:38.563Z,28.70
2018-06-27T15:38:06.778Z,27.86
2018-06-27T15:40:33.985Z,27.12
2018-06-27T15:43:01.369Z,26.43
2018-06-27T15:45:28.634Z,26.10
2018-06-27T15:47:56.059Z,25.71
2018-06-27T15:50:23.301Z,24.86
2018-06-27T15:52:50.701Z,24.85
2018-06-27T15:55:17.877Z,25.45
2018-06-27T15:57:45.111Z,26.49
2018-06-27T16:00:12.318Z,26.92
2018-06-27T16:02:39.826Z,27.50
2018-06-27T16:05:07.186Z,27.32
2018-06-27T16:07:34.521Z,27.39
2018-06-27T16:10:01.881Z,27.15
2018-06-27T16:12:29.353Z,26.60
2018-06-27T16:14:57.216Z,26.03
2018-06-27T16:17:26.010Z,25.58
2018-06-27T16:19:52.975Z,26.20
2018-06-27T16:22:21.184Z,26.48
2018-06-27T16:24:49.203Z,25.75
2018-06-27T16:27:16.439Z,25.89
2018-06-27T16:29:43.604Z,25.82
2018-06-27T16:32:10.715Z,25.98
2018-06-27T16:34:37.925Z,25.56
2018-06-27T16:37:05.202Z,25.26
2018-06-27T16:39:33.258Z,25.33
2018-06-27T16:42:00.605Z,25.44
2018-06-27T16:44:28.944Z,25.58
2018-06-27T16:46:56.411Z,25.60
2018-06-27T16:49:23.750Z,25.84
2018-06-27T16:51:51.038Z,25.88
2018-06-27T16:54:18.209Z,26.06
2018-06-27T16:56:45.610Z,26.53
2018-06-27T16:59:12.828Z,26.57
2018-06-27T17:01:40.145Z,26.44
2018-06-27T17:04:09.574Z,26.48
2018-06-27T17:06:36.655Z,25.75
2018-06-27T17:09:06.510Z,25.90
2018-06-27T17:11:33.728Z,25.59
2018-06-27T17:14:03.028Z,25.42
2018-06-27T17:16:30.375Z,25.28
2018-06-27T17:18:57.830Z,25.09
2018-06-27T17:21:25.098Z,24.82
2018-06-27T17:23:52.304Z,24.81
2018-06-27T17:26:19.479Z,24.97
2018-06-27T17:28:46.623Z,24.75
2018-06-27T17:31:13.852Z,24.62
2018-06-27T17:33:41.179Z,24.23
2018-06-27T17:36:08.360Z,24.23
2018-06-27T17:38:35.550Z,24.07
2018-06-27T17:41:02.877Z,23.77
2018-06-27T17:43:30.198Z,23.52
2018-06-27T17:45:57.576Z,23.27
2018-06-27T17:48:25.130Z,23.13
2018-06-27T17:50:52.288Z,23.07
2018-06-27T17:53:19.539Z,23.01
2018-06-27T17:55:46.748Z,22.82
2018-06-27T17:58:13.893Z,22.82
2018-06-27T18:00:41.056Z,22.73
2018-06-27T18:03:08.288Z,22.66
2018-06-27T18:05:35.488Z,22.42
2018-06-27T18:08:02.891Z,22.46
2018-06-27T18:10:30.202Z,22.46
2018-06-27T18:12:57.526Z,22.44
2018-06-27T18:15:25.646Z,22.29
2018-06-27T18:17:52.845Z,22.26
2018-06-27T18:20:20.110Z,22.20
2018-06-27T18:22:47.248Z,22.11
2018-06-27T18:25:14.415Z,22.00
2018-06-27T18:27:41.739Z,21.93
2018-06-27T18:30:08.895Z,21.88
2018-06-27T18:32:36.121Z,21.78
2018-06-27T18:35:03.957Z,21.68
2018-06-27T18:37:39.031Z,21.58
2018-06-27T18:40:07.741Z,21.51
2018-06-27T18:42:35.520Z,21.47
2018-06-27T18:45:02.884Z,21.40
2018-06-27T18:47:30.121Z,21.32
2018-06-27T18:49:58.005Z,21.19
2018-06-27T18:52:25.410Z,21.07
2018-06-27T18:54:52.590Z,20.93
2018-06-27T18:57:19.855Z,20.84
2018-06-27T18:59:47.071Z,20.72
2018-06-27T19:02:14.287Z,20.60
2018-06-27T19:04:41.489Z,20.48
2018-06-27T19:07:08.717Z,20.37
2018-06-27T19:09:35.913Z,20.25
2018-06-27T19:12:03.170Z,20.17
2018-06-27T19:14:30.689Z,20.08
2018-06-27T19:16:58.740Z,19.98
2018-06-27T19:19:26.738Z,19.90
2018-06-27T19:21:54.235Z,19.76
2018-06-27T19:24:21.483Z,19.69
2018-06-27T19:26:48.591Z,19.59
2018-06-27T19:29:15.897Z,19.48
2018-06-27T19:31:43.205Z,19.39
2018-06-27T19:34:10.411Z,19.29
2018-06-27T19:36:37.617Z,19.16
2018-06-27T19:39:08.097Z,19.05
2018-06-27T19:41:35.384Z,18.93
2018-06-27T19:44:02.768Z,18.79
2018-06-27T19:46:30.028Z,18.69
2018-06-27T19:48:57.241Z,18.59
2018-06-27T19:51:24.567Z,18.47
2018-06-27T19:53:51.655Z,18.37
2018-06-27T19:56:18.747Z,18.29
2018-06-27T19:58:45.932Z,18.18
2018-06-27T20:01:20.808Z,18.10
2018-06-27T20:03:48.017Z,18.00
2018-06-27T20:06:15.214Z,17.95
2018-06-27T20:08:42.361Z,17.85
2018-06-27T20:11:09.544Z,17.81
2018-06-27T20:13:36.663Z,17.74
2018-06-27T20:16:04.156Z,17.66
2018-06-27T20:18:31.502Z,17.60
2018-06-27T20:20:58.717Z,17.56
2018-06-27T20:23:25.916Z,17.52
2018-06-27T20:25:53.558Z,17.47
2018-06-27T20:28:20.756Z,17.50
2018-06-27T20:30:47.932Z,17.52
2018-06-27T20:33:15.117Z,17.53
2018-06-27T20:35:42.245Z,17.50
2018-06-27T20:38:09.413Z,17.52
2018-06-27T20:40:36.600Z,17.53
2018-06-27T20:43:03.840Z,17.60
2018-06-27T20:45:30.992Z,17.67
2018-06-27T20:47:58.208Z,17.84
2018-06-27T20:50:25.432Z,17.82
2018-06-27T20:52:52.598Z,17.86
2018-06-27T20:55:19.968Z,17.83
2018-06-27T20:57:47.058Z,17.93
2018-06-27T21:00:14.206Z,17.91
2018-06-27T21:02:41.370Z,18.02
2018-06-27T21:05:08.502Z,18.02
2018-06-27T21:07:35.724Z,18.11
2018-06-27T21:10:03.083Z,18.04
2018-06-27T21:12:30.244Z,18.08
2018-06-27T21:14:57.506Z,18.07
2018-06-27T21:17:25.143Z,18.10
2018-06-27T21:19:52.387Z,18.12
2018-06-27T21:22:19.544Z,18.11
2018-06-27T21:24:46.986Z,18.15
2018-06-27T21:27:14.161Z,18.16
2018-06-27T21:29:41.263Z,18.27
2018-06-27T21:32:08.536Z,18.23
2018-06-27T21:34:35.694Z,18.26
2018-06-27T21:37:02.850Z,18.32
2018-06-27T21:39:30.049Z,18.35
2018-06-27T21:41:57.314Z,18.35
2018-06-27T21:44:24.727Z,18.35
2018-06-27T21:46:52.001Z,18.33
2018-06-27T21:49:19.123Z,18.33
2018-06-27T21:51:46.267Z,18.36
2018-06-27T21:54:13.443Z,18.31
2018-06-27T21:56:40.657Z,18.26
2018-06-27T21:59:07.810Z,18.37
2018-06-27T22:01:35.007Z,18.36
2018-06-27T22:04:02.263Z,18.37
2018-06-27T22:06:29.496Z,18.32
2018-06-27T22:08:56.878Z,18.33
2018-06-27T22:11:24.206Z,18.31
2018-06-27T22:13:51.398Z,18.26
2018-06-27T22:16:18.582Z,18.22
2018-06-27T22:18:46.471Z,18.18
2018-06-27T22:21:13.781Z,18.26
2018-06-27T22:23:41.890Z,18.28
2018-06-27T22:26:09.088Z,18.32
2018-06-27T22:28:36.197Z,18.35
2018-06-27T22:31:03.364Z,18.30
2018-06-27T22:33:30.620Z,18.32
2018-06-27T22:35:57.932Z,18.36
2018-06-27T22:38:25.225Z,18.31
2018-06-27T22:40:52.481Z,18.34
2018-06-27T22:43:19.725Z,18.38
2018-06-27T22:45:46.999Z,18.38
2018-06-27T22:48:14.140Z,18.44
2018-06-27T22:50:41.263Z,18.47
2018-06-27T22:53:08.461Z,18.53
2018-06-27T22:55:35.617Z,18.54
2018-06-27T22:58:02.861Z,18.61
2018-06-27T23:00:30.099Z,18.62
2018-06-27T23:02:57.367Z,18.59
2018-06-27T23:05:24.900Z,18.58
2018-06-27T23:07:52.055Z,18.74
2018-06-27T23:10:19.255Z,18.60
2018-06-27T23:12:46.394Z,18.58
2018-06-27T23:15:13.643Z,18.57
2018-06-27T23:17:40.881Z,18.57
2018-06-27T23:20:08.052Z,18.63
2018-06-27T23:22:42.651Z,18.56
2018-06-27T23:25:09.824Z,18.57
2018-06-27T23:27:36.935Z,18.46
2018-06-27T23:30:04.680Z,18.60
2018-06-27T23:32:31.828Z,18.57
2018-06-27T23:34:59.038Z,18.51
2018-06-27T23:37:26.307Z,18.50
2018-06-27T23:39:53.753Z,18.46
2018-06-27T23:42:20.869Z,18.37
2018-06-27T23:44:48.029Z,18.32
2018-06-27T23:47:15.156Z,18.26
2018-06-27T23:49:42.464Z,18.23
2018-06-27T23:52:09.544Z,18.18
2018-06-27T23:54:36.653Z,18.11
2018-06-27T23:57:04.804Z,18.08
2018-06-27T23:59:32.068Z,18.10
